sensor_id;sensor_type;location;lat;lon;timestamp;P1;durP1;ratioP1;P2;durP2;ratioP2
19727;SDS011;10015;52.530;13.390;2022-08-03T00:00:13;6.22;;;3.60;;
19727;SDS011;10015;52.530;13.390;2022-08-03T00:02:40;10.63;;;3.30;;
19727;SDS011;10015;52.530;13.390;2022-08-03T00:05:05;8.45;;;3.10;;
19727;SDS011;10015;52.530;13.390;2022-08-03T00:07:33;4.30;;;2.75;;
19727;SDS011;10015;52.530;13.390;2022-08-03T00:09:59;4.18;;;2.78;;
19727;SDS011;10015;52.530;13.390;2022-08-03T00:12:25;3.30;;;3.00;;
19727;SDS011;10015;52.530;13.390;2022-08-03T00:14:51;5.20;;;3.17;;
19727;SDS011;10015;52.530;13.390;2022-08-03T00:17:17;5.30;;;3.13;;
19727;SDS011;10015;52.530;13.390;2022-08-03T00:19:42;4.65;;;3.05;;
19727;SDS011;10015;52.530;13.390;2022-08-03T00:22:08;4.60;;;3.38;;
19727;SDS011;10015;52.530;13.390;2022-08-03T00:24:34;5.15;;;3.63;;
19727;SDS011;10015;52.530;13.390;2022-08-03T00:27:00;4.38;;;3.25;;
19727;SDS011;10015;52.530;13.390;2022-08-03T00:29:26;5.43;;;3.38;;
19727;SDS011;10015;52.530;13.390;2022-08-03T00:31:52;5.63;;;3.40;;
19727;SDS011;10015;52.530;13.390;2022-08-03T00:34:18;7.50;;;3.60;;
19727;SDS011;10015;52.530;13.390;2022-08-03T00:36:44;5.25;;;3.53;;
19727;SDS011;10015;52.530;13.390;2022-08-03T00:39:10;10.80;;;4.32;;
19727;SDS011;10015;52.530;13.390;2022-08-03T00:41:38;6.68;;;3.72;;
19727;SDS011;10015;52.530;13.390;2022-08-03T00:44:04;7.05;;;3.67;;
19727;SDS011;10015;52.530;13.390;2022-08-03T00:46:30;6.20;;;3.25;;
19727;SDS011;10015;52.530;13.390;2022-08-03T00:48:56;8.23;;;3.78;;
19727;SDS011;10015;52.530;13.390;2022-08-03T00:51:22;6.13;;;4.20;;
19727;SDS011;10015;52.530;13.390;2022-08-03T00:53:49;5.07;;;3.50;;
19727;SDS011;10015;52.530;13.390;2022-08-03T00:56:15;4.05;;;3.40;;
19727;SDS011;10015;52.530;13.390;2022-08-03T00:58:45;5.25;;;3.50;;
19727;SDS011;10015;52.530;13.390;2022-08-03T01:01:12;5.68;;;3.53;;
19727;SDS011;10015;52.530;13.390;2022-08-03T01:03:38;4.78;;;3.40;;
19727;SDS011;10015;52.530;13.390;2022-08-03T01:06:11;6.03;;;3.40;;
19727;SDS011;10015;52.530;13.390;2022-08-03T01:11:32;5.20;;;3.40;;
19727;SDS011;10015;52.530;13.390;2022-08-03T01:14:14;7.28;;;3.35;;
19727;SDS011;10015;52.530;13.390;2022-08-03T01:16:56;4.57;;;3.20;;
19727;SDS011;10015;52.530;13.390;2022-08-03T01:19:30;8.88;;;3.28;;
19727;SDS011;10015;52.530;13.390;2022-08-03T01:27:36;6.13;;;3.75;;
19727;SDS011;10015;52.530;13.390;2022-08-03T01:30:32;8.07;;;3.75;;
19727;SDS011;10015;52.530;13.390;2022-08-03T01:33:06;6.15;;;4.20;;
19727;SDS011;10015;52.530;13.390;2022-08-03T01:35:46;6.78;;;3.60;;
19727;SDS011;10015;52.530;13.390;2022-08-03T01:38:21;5.43;;;4.05;;
19727;SDS011;10015;52.530;13.390;2022-08-03T01:40:51;7.50;;;3.55;;
19727;SDS011;10015;52.530;13.390;2022-08-03T01:43:19;7.40;;;3.30;;
19727;SDS011;10015;52.530;13.390;2022-08-03T01:45:49;7.10;;;3.70;;
19727;SDS011;10015;52.530;13.390;2022-08-03T01:48:16;8.20;;;3.50;;
19727;SDS011;10015;52.530;13.390;2022-08-03T01:50:44;4.47;;;3.72;;
19727;SDS011;10015;52.530;13.390;2022-08-03T01:53:14;3.90;;;3.40;;
19727;SDS011;10015;52.530;13.390;2022-08-03T01:55:43;6.57;;;3.92;;
19727;SDS011;10015;52.530;13.390;2022-08-03T01:58:12;4.88;;;3.42;;
19727;SDS011;10015;52.530;13.390;2022-08-03T02:00:42;6.43;;;3.28;;
19727;SDS011;10015;52.530;13.390;2022-08-03T02:03:09;6.72;;;3.50;;
19727;SDS011;10015;52.530;13.390;2022-08-03T02:05:38;5.90;;;3.65;;
19727;SDS011;10015;52.530;13.390;2022-08-03T02:08:06;6.65;;;3.70;;
19727;SDS011;10015;52.530;13.390;2022-08-03T02:10:42;7.20;;;4.18;;
19727;SDS011;10015;52.530;13.390;2022-08-03T02:13:11;6.32;;;4.30;;
19727;SDS011;10015;52.530;13.390;2022-08-03T02:15:39;5.85;;;3.33;;
19727;SDS011;10015;52.530;13.390;2022-08-03T02:18:07;4.82;;;3.38;;
19727;SDS011;10015;52.530;13.390;2022-08-03T02:20:34;5.88;;;3.00;;
19727;SDS011;10015;52.530;13.390;2022-08-03T02:23:03;4.90;;;3.63;;
19727;SDS011;10015;52.530;13.390;2022-08-03T02:25:31;9.05;;;3.40;;
19727;SDS011;10015;52.530;13.390;2022-08-03T02:28:21;6.43;;;3.15;;
19727;SDS011;10015;52.530;13.390;2022-08-03T02:31:06;3.50;;;3.08;;
19727;SDS011;10015;52.530;13.390;2022-08-03T02:33:49;4.47;;;3.25;;
19727;SDS011;10015;52.530;13.390;2022-08-03T02:36:18;3.35;;;3.05;;
19727;SDS011;10015;52.530;13.390;2022-08-03T02:38:48;6.43;;;3.60;;
19727;SDS011;10015;52.530;13.390;2022-08-03T02:41:20;5.95;;;3.45;;
19727;SDS011;10015;52.530;13.390;2022-08-03T02:43:50;7.47;;;3.67;;
19727;SDS011;10015;52.530;13.390;2022-08-03T02:46:19;6.80;;;3.38;;
19727;SDS011;10015;52.530;13.390;2022-08-03T02:48:48;5.85;;;3.58;;
19727;SDS011;10015;52.530;13.390;2022-08-03T02:51:18;8.05;;;3.30;;
19727;SDS011;10015;52.530;13.390;2022-08-03T02:53:46;5.20;;;3.53;;
19727;SDS011;10015;52.530;13.390;2022-08-03T02:56:13;4.85;;;2.97;;
19727;SDS011;10015;52.530;13.390;2022-08-03T02:58:42;7.35;;;3.17;;
19727;SDS011;10015;52.530;13.390;2022-08-03T03:01:09;4.60;;;3.40;;
19727;SDS011;10015;52.530;13.390;2022-08-03T03:03:36;4.97;;;3.40;;
19727;SDS011;10015;52.530;13.390;2022-08-03T03:06:07;6.00;;;3.40;;
19727;SDS011;10015;52.530;13.390;2022-08-03T03:08:35;5.30;;;3.03;;
19727;SDS011;10015;52.530;13.390;2022-08-03T03:11:01;4.55;;;3.42;;
19727;SDS011;10015;52.530;13.390;2022-08-03T03:13:29;5.22;;;3.58;;
19727;SDS011;10015;52.530;13.390;2022-08-03T03:15:56;5.32;;;3.58;;
19727;SDS011;10015;52.530;13.390;2022-08-03T03:18:30;4.32;;;3.70;;
19727;SDS011;10015;52.530;13.390;2022-08-03T03:20:57;4.25;;;2.90;;
19727;SDS011;10015;52.530;13.390;2022-08-03T03:23:25;6.30;;;3.15;;
19727;SDS011;10015;52.530;13.390;2022-08-03T03:25:52;4.07;;;3.13;;
19727;SDS011;10015;52.530;13.390;2022-08-03T03:28:20;5.22;;;3.10;;
19727;SDS011;10015;52.530;13.390;2022-08-03T03:30:48;5.60;;;3.30;;
19727;SDS011;10015;52.530;13.390;2022-08-03T03:33:14;6.70;;;3.42;;
19727;SDS011;10015;52.530;13.390;2022-08-03T03:35:40;5.72;;;3.28;;
19727;SDS011;10015;52.530;13.390;2022-08-03T03:38:08;4.45;;;3.15;;
19727;SDS011;10015;52.530;13.390;2022-08-03T03:40:34;5.72;;;3.60;;
19727;SDS011;10015;52.530;13.390;2022-08-03T03:43:02;5.40;;;3.30;;
19727;SDS011;10015;52.530;13.390;2022-08-03T03:45:33;5.75;;;3.60;;
19727;SDS011;10015;52.530;13.390;2022-08-03T03:48:00;6.57;;;3.25;;
19727;SDS011;10015;52.530;13.390;2022-08-03T03:50:28;5.20;;;3.30;;
19727;SDS011;10015;52.530;13.390;2022-08-03T03:52:58;4.28;;;3.15;;
19727;SDS011;10015;52.530;13.390;2022-08-03T03:55:25;6.25;;;3.78;;
19727;SDS011;10015;52.530;13.390;2022-08-03T03:57:51;6.63;;;3.55;;
19727;SDS011;10015;52.530;13.390;2022-08-03T04:00:17;4.47;;;3.50;;
19727;SDS011;10015;52.530;13.390;2022-08-03T04:02:44;5.10;;;3.78;;
19727;SDS011;10015;52.530;13.390;2022-08-03T04:05:10;4.10;;;3.33;;
19727;SDS011;10015;52.530;13.390;2022-08-03T04:16:49;4.78;;;3.65;;
19727;SDS011;10015;52.530;13.390;2022-08-03T04:22:17;5.47;;;3.30;;
19727;SDS011;10015;52.530;13.390;2022-08-03T04:24:49;5.68;;;3.35;;
19727;SDS011;10015;52.530;13.390;2022-08-03T04:27:20;5.25;;;3.58;;
19727;SDS011;10015;52.530;13.390;2022-08-03T04:29:50;6.68;;;3.80;;
19727;SDS011;10015;52.530;13.390;2022-08-03T04:32:19;5.53;;;3.28;;
19727;SDS011;10015;52.530;13.390;2022-08-03T04:34:48;7.90;;;3.47;;
19727;SDS011;10015;52.530;13.390;2022-08-03T04:37:16;5.68;;;3.53;;
19727;SDS011;10015;52.530;13.390;2022-08-03T04:39:48;7.80;;;3.35;;
19727;SDS011;10015;52.530;13.390;2022-08-03T04:42:17;4.85;;;3.63;;
19727;SDS011;10015;52.530;13.390;2022-08-03T04:44:46;6.75;;;3.53;;
19727;SDS011;10015;52.530;13.390;2022-08-03T04:47:13;7.60;;;3.40;;
19727;SDS011;10015;52.530;13.390;2022-08-03T04:49:40;6.35;;;3.67;;
19727;SDS011;10015;52.530;13.390;2022-08-03T04:52:06;5.82;;;3.33;;
19727;SDS011;10015;52.530;13.390;2022-08-03T04:54:40;8.70;;;3.90;;
19727;SDS011;10015;52.530;13.390;2022-08-03T04:57:08;6.68;;;4.13;;
19727;SDS011;10015;52.530;13.390;2022-08-03T04:59:35;9.20;;;3.92;;
19727;SDS011;10015;52.530;13.390;2022-08-03T05:02:01;7.03;;;3.70;;
19727;SDS011;10015;52.530;13.390;2022-08-03T05:04:27;8.70;;;3.90;;
19727;SDS011;10015;52.530;13.390;2022-08-03T05:06:53;7.35;;;3.60;;
19727;SDS011;10015;52.530;13.390;2022-08-03T05:09:19;7.75;;;3.67;;
19727;SDS011;10015;52.530;13.390;2022-08-03T05:11:45;5.57;;;3.90;;
19727;SDS011;10015;52.530;13.390;2022-08-03T05:14:11;7.35;;;3.40;;
19727;SDS011;10015;52.530;13.390;2022-08-03T05:16:37;7.07;;;3.60;;
19727;SDS011;10015;52.530;13.390;2022-08-03T05:19:03;5.80;;;3.50;;
19727;SDS011;10015;52.530;13.390;2022-08-03T05:21:29;6.25;;;3.60;;
19727;SDS011;10015;52.530;13.390;2022-08-03T05:23:54;9.00;;;3.90;;
19727;SDS011;10015;52.530;13.390;2022-08-03T05:26:20;7.82;;;3.25;;
19727;SDS011;10015;52.530;13.390;2022-08-03T05:28:46;9.32;;;3.30;;
19727;SDS011;10015;52.530;13.390;2022-08-03T05:31:12;5.95;;;3.47;;
19727;SDS011;10015;52.530;13.390;2022-08-03T05:33:38;6.30;;;3.03;;
19727;SDS011;10015;52.530;13.390;2022-08-03T05:36:04;6.30;;;3.38;;
19727;SDS011;10015;52.530;13.390;2022-08-03T05:38:30;5.32;;;3.53;;
19727;SDS011;10015;52.530;13.390;2022-08-03T05:40:57;4.60;;;2.80;;
19727;SDS011;10015;52.530;13.390;2022-08-03T05:43:23;5.45;;;3.03;;
19727;SDS011;10015;52.530;13.390;2022-08-03T05:45:49;5.43;;;2.80;;
19727;SDS011;10015;52.530;13.390;2022-08-03T05:48:15;6.38;;;3.03;;
19727;SDS011;10015;52.530;13.390;2022-08-03T05:50:41;9.45;;;3.35;;
19727;SDS011;10015;52.530;13.390;2022-08-03T05:53:07;7.65;;;2.95;;
19727;SDS011;10015;52.530;13.390;2022-08-03T05:55:33;8.07;;;3.25;;
19727;SDS011;10015;52.530;13.390;2022-08-03T05:57:59;5.32;;;3.22;;
19727;SDS011;10015;52.530;13.390;2022-08-03T06:00:27;7.75;;;2.90;;
19727;SDS011;10015;52.530;13.390;2022-08-03T06:02:53;6.72;;;3.22;;
19727;SDS011;10015;52.530;13.390;2022-08-03T06:05:19;3.45;;;2.60;;
19727;SDS011;10015;52.530;13.390;2022-08-03T06:07:46;6.78;;;2.70;;
19727;SDS011;10015;52.530;13.390;2022-08-03T06:10:12;11.70;;;3.60;;
19727;SDS011;10015;52.530;13.390;2022-08-03T06:12:37;5.50;;;3.05;;
19727;SDS011;10015;52.530;13.390;2022-08-03T06:15:05;4.90;;;2.70;;
19727;SDS011;10015;52.530;13.390;2022-08-03T06:17:32;8.02;;;2.97;;
19727;SDS011;10015;52.530;13.390;2022-08-03T06:19:58;7.45;;;2.70;;
19727;SDS011;10015;52.530;13.390;2022-08-03T06:22:26;9.75;;;3.25;;
19727;SDS011;10015;52.530;13.390;2022-08-03T06:24:52;8.85;;;3.10;;
19727;SDS011;10015;52.530;13.390;2022-08-03T06:27:18;8.13;;;3.35;;
19727;SDS011;10015;52.530;13.390;2022-08-03T06:29:43;7.45;;;3.08;;
19727;SDS011;10015;52.530;13.390;2022-08-03T06:32:09;9.13;;;3.55;;
19727;SDS011;10015;52.530;13.390;2022-08-03T06:34:36;5.38;;;3.08;;
19727;SDS011;10015;52.530;13.390;2022-08-03T06:37:02;7.35;;;3.30;;
19727;SDS011;10015;52.530;13.390;2022-08-03T06:39:29;5.45;;;2.63;;
19727;SDS011;10015;52.530;13.390;2022-08-03T06:41:55;3.03;;;2.13;;
19727;SDS011;10015;52.530;13.390;2022-08-03T06:44:21;7.05;;;2.42;;
19727;SDS011;10015;52.530;13.390;2022-08-03T06:46:47;5.75;;;2.70;;
19727;SDS011;10015;52.530;13.390;2022-08-03T06:49:13;8.15;;;2.67;;
19727;SDS011;10015;52.530;13.390;2022-08-03T06:51:39;3.65;;;2.25;;
19727;SDS011;10015;52.530;13.390;2022-08-03T06:54:05;9.27;;;2.38;;
19727;SDS011;10015;52.530;13.390;2022-08-03T06:56:34;5.25;;;2.10;;
19727;SDS011;10015;52.530;13.390;2022-08-03T06:59:04;3.47;;;1.90;;
19727;SDS011;10015;52.530;13.390;2022-08-03T07:01:33;4.53;;;2.22;;
19727;SDS011;10015;52.530;13.390;2022-08-03T07:03:59;6.05;;;2.80;;
19727;SDS011;10015;52.530;13.390;2022-08-03T07:06:36;5.72;;;2.50;;
19727;SDS011;10015;52.530;13.390;2022-08-03T07:09:06;4.03;;;2.40;;
19727;SDS011;10015;52.530;13.390;2022-08-03T07:11:32;5.15;;;2.63;;
19727;SDS011;10015;52.530;13.390;2022-08-03T07:13:58;6.68;;;2.55;;
19727;SDS011;10015;52.530;13.390;2022-08-03T07:16:24;4.00;;;2.33;;
19727;SDS011;10015;52.530;13.390;2022-08-03T07:18:53;5.22;;;2.42;;
19727;SDS011;10015;52.530;13.390;2022-08-03T07:21:21;5.93;;;2.38;;
19727;SDS011;10015;52.530;13.390;2022-08-03T07:23:55;5.78;;;2.58;;
19727;SDS011;10015;52.530;13.390;2022-08-03T07:26:24;6.20;;;2.38;;
19727;SDS011;10015;52.530;13.390;2022-08-03T07:28:50;5.53;;;2.47;;
19727;SDS011;10015;52.530;13.390;2022-08-03T07:31:20;6.65;;;2.42;;
19727;SDS011;10015;52.530;13.390;2022-08-03T07:33:52;5.80;;;2.67;;
19727;SDS011;10015;52.530;13.390;2022-08-03T07:36:20;7.60;;;2.30;;
19727;SDS011;10015;52.530;13.390;2022-08-03T07:39:07;7.50;;;3.22;;
19727;SDS011;10015;52.530;13.390;2022-08-03T07:41:34;8.32;;;2.47;;
19727;SDS011;10015;52.530;13.390;2022-08-03T07:44:00;9.32;;;3.28;;
19727;SDS011;10015;52.530;13.390;2022-08-03T07:46:29;6.35;;;2.45;;
19727;SDS011;10015;52.530;13.390;2022-08-03T07:49:04;4.25;;;2.20;;
19727;SDS011;10015;52.530;13.390;2022-08-03T07:51:32;3.40;;;2.33;;
19727;SDS011;10015;52.530;13.390;2022-08-03T07:54:01;3.50;;;1.90;;
19727;SDS011;10015;52.530;13.390;2022-08-03T07:56:30;2.55;;;2.00;;
19727;SDS011;10015;52.530;13.390;2022-08-03T07:58:57;2.88;;;1.70;;
19727;SDS011;10015;52.530;13.390;2022-08-03T08:01:27;4.03;;;1.92;;
19727;SDS011;10015;52.530;13.390;2022-08-03T08:04:00;4.28;;;1.77;;
19727;SDS011;10015;52.530;13.390;2022-08-03T08:06:26;3.60;;;1.95;;
19727;SDS011;10015;52.530;13.390;2022-08-03T08:09:00;6.93;;;1.80;;
19727;SDS011;10015;52.530;13.390;2022-08-03T08:11:26;5.15;;;2.47;;
19727;SDS011;10015;52.530;13.390;2022-08-03T08:14:02;6.68;;;2.22;;
19727;SDS011;10015;52.530;13.390;2022-08-03T08:16:41;7.05;;;2.30;;
19727;SDS011;10015;52.530;13.390;2022-08-03T08:19:16;7.20;;;2.90;;
19727;SDS011;10015;52.530;13.390;2022-08-03T08:21:44;4.68;;;1.90;;
19727;SDS011;10015;52.530;13.390;2022-08-03T08:24:16;2.10;;;1.90;;
19727;SDS011;10015;52.530;13.390;2022-08-03T08:26:42;3.67;;;2.25;;
19727;SDS011;10015;52.530;13.390;2022-08-03T08:29:22;5.35;;;2.55;;
19727;SDS011;10015;52.530;13.390;2022-08-03T08:32:01;6.68;;;2.00;;
19727;SDS011;10015;52.530;13.390;2022-08-03T08:34:28;2.75;;;1.80;;
19727;SDS011;10015;52.530;13.390;2022-08-03T08:36:59;4.82;;;2.20;;
19727;SDS011;10015;52.530;13.390;2022-08-03T08:39:25;4.57;;;2.03;;
19727;SDS011;10015;52.530;13.390;2022-08-03T08:41:52;2.10;;;1.90;;
19727;SDS011;10015;52.530;13.390;2022-08-03T08:44:28;2.95;;;1.95;;
19727;SDS011;10015;52.530;13.390;2022-08-03T08:46:59;6.75;;;2.10;;
19727;SDS011;10015;52.530;13.390;2022-08-03T08:49:27;3.08;;;2.03;;
19727;SDS011;10015;52.530;13.390;2022-08-03T08:51:55;4.20;;;2.03;;
19727;SDS011;10015;52.530;13.390;2022-08-03T08:54:29;3.20;;;1.95;;
19727;SDS011;10015;52.530;13.390;2022-08-03T08:57:03;3.42;;;1.80;;
19727;SDS011;10015;52.530;13.390;2022-08-03T08:59:50;2.15;;;1.58;;
19727;SDS011;10015;52.530;13.390;2022-08-03T09:02:19;3.40;;;2.00;;
19727;SDS011;10015;52.530;13.390;2022-08-03T09:04:51;3.00;;;1.70;;
19727;SDS011;10015;52.530;13.390;2022-08-03T09:07:18;3.25;;;2.17;;
19727;SDS011;10015;52.530;13.390;2022-08-03T09:09:44;5.53;;;2.42;;
19727;SDS011;10015;52.530;13.390;2022-08-03T09:12:10;3.00;;;2.00;;
19727;SDS011;10015;52.530;13.390;2022-08-03T09:14:36;2.67;;;1.80;;
19727;SDS011;10015;52.530;13.390;2022-08-03T09:17:02;2.38;;;1.88;;
19727;SDS011;10015;52.530;13.390;2022-08-03T09:19:29;5.53;;;1.95;;
19727;SDS011;10015;52.530;13.390;2022-08-03T09:24:52;3.85;;;2.10;;
19727;SDS011;10015;52.530;13.390;2022-08-03T09:27:19;2.95;;;2.10;;
19727;SDS011;10015;52.530;13.390;2022-08-03T09:29:48;4.32;;;2.20;;
19727;SDS011;10015;52.530;13.390;2022-08-03T09:32:18;4.85;;;1.77;;
19727;SDS011;10015;52.530;13.390;2022-08-03T09:34:46;3.05;;;1.98;;
19727;SDS011;10015;52.530;13.390;2022-08-03T09:37:14;2.83;;;2.15;;
19727;SDS011;10015;52.530;13.390;2022-08-03T09:39:41;7.03;;;2.00;;
19727;SDS011;10015;52.530;13.390;2022-08-03T09:42:14;5.03;;;1.90;;
19727;SDS011;10015;52.530;13.390;2022-08-03T09:44:43;4.40;;;2.20;;
19727;SDS011;10015;52.530;13.390;2022-08-03T09:47:10;3.80;;;2.15;;
19727;SDS011;10015;52.530;13.390;2022-08-03T09:49:38;2.20;;;1.95;;
19727;SDS011;10015;52.530;13.390;2022-08-03T09:54:38;2.38;;;2.08;;
19727;SDS011;10015;52.530;13.390;2022-08-03T09:57:05;5.32;;;1.70;;
19727;SDS011;10015;52.530;13.390;2022-08-03T09:59:32;4.15;;;2.10;;
19727;SDS011;10015;52.530;13.390;2022-08-03T10:01:58;2.42;;;1.90;;
19727;SDS011;10015;52.530;13.390;2022-08-03T10:04:25;1.92;;;1.70;;
19727;SDS011;10015;52.530;13.390;2022-08-03T10:09:27;4.97;;;2.42;;
19727;SDS011;10015;52.530;13.390;2022-08-03T10:11:53;6.00;;;1.98;;
19727;SDS011;10015;52.530;13.390;2022-08-03T10:14:19;4.22;;;2.20;;
19727;SDS011;10015;52.530;13.390;2022-08-03T10:16:47;2.83;;;2.17;;
19727;SDS011;10015;52.530;13.390;2022-08-03T10:19:14;4.15;;;2.00;;
19727;SDS011;10015;52.530;13.390;2022-08-03T10:21:42;2.17;;;1.83;;
19727;SDS011;10015;52.530;13.390;2022-08-03T10:24:25;3.80;;;2.00;;
19727;SDS011;10015;52.530;13.390;2022-08-03T10:26:55;2.63;;;1.80;;
19727;SDS011;10015;52.530;13.390;2022-08-03T10:29:27;4.72;;;2.33;;
19727;SDS011;10015;52.530;13.390;2022-08-03T10:31:57;2.20;;;2.00;;
19727;SDS011;10015;52.530;13.390;2022-08-03T10:34:25;3.25;;;2.20;;
19727;SDS011;10015;52.530;13.390;2022-08-03T10:36:55;1.92;;;1.83;;
19727;SDS011;10015;52.530;13.390;2022-08-03T10:39:23;4.43;;;2.10;;
19727;SDS011;10015;52.530;13.390;2022-08-03T10:41:52;3.10;;;2.00;;
19727;SDS011;10015;52.530;13.390;2022-08-03T10:44:22;2.47;;;2.00;;
19727;SDS011;10015;52.530;13.390;2022-08-03T10:46:50;3.40;;;2.05;;
19727;SDS011;10015;52.530;13.390;2022-08-03T10:49:17;5.05;;;1.75;;
19727;SDS011;10015;52.530;13.390;2022-08-03T10:51:44;1.95;;;1.52;;
19727;SDS011;10015;52.530;13.390;2022-08-03T10:57:40;2.13;;;1.90;;
19727;SDS011;10015;52.530;13.390;2022-08-03T11:00:19;2.70;;;2.10;;
19727;SDS011;10015;52.530;13.390;2022-08-03T11:05:39;6.00;;;2.80;;
19727;SDS011;10015;52.530;13.390;2022-08-03T11:08:22;2.70;;;1.85;;
19727;SDS011;10015;52.530;13.390;2022-08-03T11:10:56;4.50;;;2.30;;
19727;SDS011;10015;52.530;13.390;2022-08-03T11:13:25;2.70;;;1.77;;
19727;SDS011;10015;52.530;13.390;2022-08-03T11:15:56;2.70;;;1.90;;
19727;SDS011;10015;52.530;13.390;2022-08-03T11:18:26;2.50;;;1.88;;
19727;SDS011;10015;52.530;13.390;2022-08-03T11:20:53;4.45;;;2.15;;
19727;SDS011;10015;52.530;13.390;2022-08-03T11:26:18;4.15;;;1.77;;
19727;SDS011;10015;52.530;13.390;2022-08-03T11:28:47;3.83;;;2.20;;
19727;SDS011;10015;52.530;13.390;2022-08-03T11:39:37;2.20;;;2.00;;
19727;SDS011;10015;52.530;13.390;2022-08-03T11:44:49;2.72;;;2.17;;
19727;SDS011;10015;52.530;13.390;2022-08-03T11:47:19;5.38;;;1.90;;
19727;SDS011;10015;52.530;13.390;2022-08-03T11:49:46;2.80;;;2.20;;
19727;SDS011;10015;52.530;13.390;2022-08-03T11:52:13;2.60;;;2.10;;
19727;SDS011;10015;52.530;13.390;2022-08-03T11:54:41;2.92;;;1.90;;
19727;SDS011;10015;52.530;13.390;2022-08-03T11:57:07;2.85;;;1.60;;
19727;SDS011;10015;52.530;13.390;2022-08-03T11:59:33;2.72;;;2.00;;
19727;SDS011;10015;52.530;13.390;2022-08-03T12:02:07;2.92;;;2.20;;
19727;SDS011;10015;52.530;13.390;2022-08-03T12:07:19;2.50;;;1.77;;
19727;SDS011;10015;52.530;13.390;2022-08-03T12:12:31;2.67;;;1.80;;
19727;SDS011;10015;52.530;13.390;2022-08-03T12:14:57;4.00;;;1.90;;
19727;SDS011;10015;52.530;13.390;2022-08-03T12:17:31;2.55;;;1.60;;
19727;SDS011;10015;52.530;13.390;2022-08-03T12:19:58;2.75;;;1.50;;
19727;SDS011;10015;52.530;13.390;2022-08-03T12:22:35;3.13;;;1.70;;
19727;SDS011;10015;52.530;13.390;2022-08-03T12:25:03;1.95;;;1.70;;
19727;SDS011;10015;52.530;13.390;2022-08-03T12:27:30;3.25;;;1.80;;
19727;SDS011;10015;52.530;13.390;2022-08-03T12:29:56;2.80;;;1.90;;
19727;SDS011;10015;52.530;13.390;2022-08-03T12:32:25;2.60;;;1.70;;
19727;SDS011;10015;52.530;13.390;2022-08-03T12:34:52;2.08;;;1.88;;
19727;SDS011;10015;52.530;13.390;2022-08-03T12:37:18;2.53;;;1.73;;
19727;SDS011;10015;52.530;13.390;2022-08-03T12:39:49;3.30;;;1.83;;
19727;SDS011;10015;52.530;13.390;2022-08-03T12:42:16;4.57;;;1.73;;
19727;SDS011;10015;52.530;13.390;2022-08-03T12:44:42;2.88;;;1.80;;
19727;SDS011;10015;52.530;13.390;2022-08-03T12:47:10;1.70;;;1.60;;
19727;SDS011;10015;52.530;13.390;2022-08-03T12:49:52;1.88;;;1.77;;
19727;SDS011;10015;52.530;13.390;2022-08-03T12:52:19;1.73;;;1.63;;
19727;SDS011;10015;52.530;13.390;2022-08-03T12:54:56;2.38;;;1.90;;
19727;SDS011;10015;52.530;13.390;2022-08-03T12:57:24;4.47;;;1.95;;
19727;SDS011;10015;52.530;13.390;2022-08-03T12:59:50;2.17;;;1.70;;
19727;SDS011;10015;52.530;13.390;2022-08-03T13:02:23;1.90;;;1.70;;
19727;SDS011;10015;52.530;13.390;2022-08-03T13:04:51;1.60;;;1.50;;
19727;SDS011;10015;52.530;13.390;2022-08-03T13:07:18;2.45;;;1.88;;
19727;SDS011;10015;52.530;13.390;2022-08-03T13:09:46;2.17;;;1.70;;
19727;SDS011;10015;52.530;13.390;2022-08-03T13:12:14;2.92;;;1.77;;
19727;SDS011;10015;52.530;13.390;2022-08-03T13:14:43;2.53;;;1.70;;
19727;SDS011;10015;52.530;13.390;2022-08-03T13:17:10;2.30;;;1.70;;
19727;SDS011;10015;52.530;13.390;2022-08-03T13:19:36;2.00;;;1.58;;
19727;SDS011;10015;52.530;13.390;2022-08-03T13:22:13;2.13;;;1.80;;
19727;SDS011;10015;52.530;13.390;2022-08-03T13:24:40;1.95;;;1.80;;
19727;SDS011;10015;52.530;13.390;2022-08-03T13:27:07;2.10;;;1.80;;
19727;SDS011;10015;52.530;13.390;2022-08-03T13:29:33;1.98;;;1.73;;
19727;SDS011;10015;52.530;13.390;2022-08-03T13:32:00;2.53;;;1.90;;
19727;SDS011;10015;52.530;13.390;2022-08-03T13:34:27;4.43;;;2.00;;
19727;SDS011;10015;52.530;13.390;2022-08-03T13:36:53;2.30;;;2.10;;
19727;SDS011;10015;52.530;13.390;2022-08-03T13:39:19;3.17;;;2.22;;
19727;SDS011;10015;52.530;13.390;2022-08-03T13:41:45;3.65;;;1.95;;
19727;SDS011;10015;52.530;13.390;2022-08-03T13:44:12;3.10;;;2.05;;
19727;SDS011;10015;52.530;13.390;2022-08-03T13:46:38;2.13;;;1.77;;
19727;SDS011;10015;52.530;13.390;2022-08-03T13:49:04;2.33;;;2.17;;
19727;SDS011;10015;52.530;13.390;2022-08-03T13:51:31;2.47;;;1.80;;
19727;SDS011;10015;52.530;13.390;2022-08-03T13:53:57;2.22;;;2.03;;
19727;SDS011;10015;52.530;13.390;2022-08-03T13:56:24;2.38;;;2.03;;
19727;SDS011;10015;52.530;13.390;2022-08-03T13:58:51;3.13;;;2.10;;
19727;SDS011;10015;52.530;13.390;2022-08-03T14:01:17;3.42;;;1.80;;
19727;SDS011;10015;52.530;13.390;2022-08-03T14:03:43;2.40;;;2.20;;
19727;SDS011;10015;52.530;13.390;2022-08-03T14:06:13;2.10;;;1.85;;
19727;SDS011;10015;52.530;13.390;2022-08-03T14:08:39;4.25;;;2.15;;
19727;SDS011;10015;52.530;13.390;2022-08-03T14:11:05;5.07;;;2.25;;
19727;SDS011;10015;52.530;13.390;2022-08-03T14:13:31;3.47;;;2.00;;
19727;SDS011;10015;52.530;13.390;2022-08-03T14:15:57;2.53;;;2.17;;
19727;SDS011;10015;52.530;13.390;2022-08-03T14:18:23;2.33;;;1.90;;
19727;SDS011;10015;52.530;13.390;2022-08-03T14:20:49;2.40;;;2.20;;
19727;SDS011;10015;52.530;13.390;2022-08-03T14:23:15;2.90;;;2.10;;
19727;SDS011;10015;52.530;13.390;2022-08-03T14:25:41;2.85;;;2.20;;
19727;SDS011;10015;52.530;13.390;2022-08-03T14:28:07;3.10;;;2.60;;
19727;SDS011;10015;52.530;13.390;2022-08-03T14:30:33;2.78;;;1.83;;
19727;SDS011;10015;52.530;13.390;2022-08-03T14:33:02;2.10;;;1.70;;
19727;SDS011;10015;52.530;13.390;2022-08-03T14:35:28;2.35;;;2.00;;
19727;SDS011;10015;52.530;13.390;2022-08-03T14:37:54;4.97;;;2.10;;
19727;SDS011;10015;52.530;13.390;2022-08-03T14:40:20;2.95;;;2.00;;
19727;SDS011;10015;52.530;13.390;2022-08-03T14:42:46;2.65;;;2.17;;
19727;SDS011;10015;52.530;13.390;2022-08-03T14:45:12;2.30;;;2.10;;
19727;SDS011;10015;52.530;13.390;2022-08-03T14:47:39;2.70;;;2.13;;
19727;SDS011;10015;52.530;13.390;2022-08-03T14:50:05;4.50;;;2.17;;
19727;SDS011;10015;52.530;13.390;2022-08-03T14:52:32;2.83;;;2.00;;
19727;SDS011;10015;52.530;13.390;2022-08-03T14:54:59;3.35;;;2.17;;
19727;SDS011;10015;52.530;13.390;2022-08-03T14:57:25;2.30;;;2.10;;
19727;SDS011;10015;52.530;13.390;2022-08-03T14:59:51;2.30;;;2.10;;
19727;SDS011;10015;52.530;13.390;2022-08-03T15:02:17;2.30;;;1.80;;
19727;SDS011;10015;52.530;13.390;2022-08-03T15:04:44;3.42;;;2.08;;
19727;SDS011;10015;52.530;13.390;2022-08-03T15:07:10;4.13;;;1.85;;
19727;SDS011;10015;52.530;13.390;2022-08-03T15:09:36;4.65;;;2.15;;
19727;SDS011;10015;52.530;13.390;2022-08-03T15:12:03;3.03;;;2.13;;
19727;SDS011;10015;52.530;13.390;2022-08-03T15:14:30;2.20;;;2.00;;
19727;SDS011;10015;52.530;13.390;2022-08-03T15:17:01;4.50;;;2.10;;
19727;SDS011;10015;52.530;13.390;2022-08-03T15:19:27;2.22;;;2.00;;
19727;SDS011;10015;52.530;13.390;2022-08-03T15:21:53;2.63;;;2.08;;
19727;SDS011;10015;52.530;13.390;2022-08-03T15:24:19;2.67;;;2.10;;
19727;SDS011;10015;52.530;13.390;2022-08-03T15:26:47;4.05;;;2.08;;
19727;SDS011;10015;52.530;13.390;2022-08-03T15:29:14;2.20;;;2.00;;
19727;SDS011;10015;52.530;13.390;2022-08-03T15:31:40;2.85;;;2.08;;
19727;SDS011;10015;52.530;13.390;2022-08-03T15:34:06;2.95;;;2.30;;